sensor_id;sensor_type;location;lat;lon;timestamp;pressure;altitude;pressure_sealevel;temperature;humidity
57374;BME280;43964;53.890;25.340;2023-04-02T00:01:04;1010;;;7.8;71
57374;BME280;43964;53.890;25.340;2023-04-02T00:06:41;1010;;;7.7;71
57374;BME280;43964;53.890;25.340;2023-04-02T00:11:09;1010.1;;;7.6;71.1
57374;BME280;43964;53.890;25.340;2023-04-02T00:16:17;1010.1;;;7.6;71.3
57374;BME280;43964;53.890;25.340;2023-04-02T00:21:39;1010.1;;;7.6;71.2
57374;BME280;43964;53.890;25.340;2023-04-02T00:26:21;1010.1;;;7.6;71
57374;BME280;43964;53.890;25.340;2023-04-02T00:31:42;1010.2;;;7.6;71.1
57374;BME280;43964;53.890;25.340;2023-04-02T00:36:32;1010.2;;;7.6;71
57374;BME280;43964;53.890;25.340;2023-04-02T00:41:26;1010.3;;;7.6;71
57374;BME280;43964;53.890;25.340;2023-04-02T00:46:40;1010.3;;;7.6;71
57374;BME280;43964;53.890;25.340;2023-04-02T00:51:23;1010.4;;;7.6;70.9
57374;BME280;43964;53.890;25.340;2023-04-02T00:56:41;1010.5;;;7.5;70.9
57374;BME280;43964;53.890;25.340;2023-04-02T01:01:17;1010.4;;;7.5;70.9
57374;BME280;43964;53.890;25.340;2023-04-02T01:06:15;1010.5;;;7.5;70.8
57374;BME280;43964;53.890;25.340;2023-04-02T01:11:45;1010.5;;;7.6;70.8
57374;BME280;43964;53.890;25.340;2023-04-02T01:16:09;1010.6;;;7.6;70.7
57374;BME280;43964;53.890;25.340;2023-04-02T01:21:45;1010.6;;;7.5;70.7
57374;BME280;43964;53.890;25.340;2023-04-02T01:26:38;1010.6;;;7.5;70.6
57374;BME280;43964;53.890;25.340;2023-04-02T01:31:09;1010.7;;;7.5;70.6
57374;BME280;43964;53.890;25.340;2023-04-02T01:36:26;1010.7;;;7.5;70.5
57374;BME280;43964;53.890;25.340;2023-04-02T01:41:11;1010.8;;;7.3;70.5
57374;BME280;43964;53.890;25.340;2023-04-02T01:46:39;1010.8;;;7.2;70.8
57374;BME280;43964;53.890;25.340;2023-04-02T01:51:31;1010.9;;;7.3;70.7
57374;BME280;43964;53.890;25.340;2023-04-02T01:56:00;1010.9;;;7.3;70.5
57374;BME280;43964;53.890;25.340;2023-04-02T02:01:40;1011;;;7.3;70.5
57374;BME280;43964;53.890;25.340;2023-04-02T02:05:59;1011.1;;;7.3;70.5
57374;BME280;43964;53.890;25.340;2023-04-02T02:11:41;1011.2;;;7.2;70.3
57374;BME280;43964;53.890;25.340;2023-04-02T02:16:17;1011.2;;;7.2;70.3
57374;BME280;43964;53.890;25.340;2023-04-02T02:20:59;1011.3;;;7.1;70.3
57374;BME280;43964;53.890;25.340;2023-04-02T02:26:39;1011.3;;;6.9;70.2
57374;BME280;43964;53.890;25.340;2023-04-02T02:31:23;1011.3;;;6.9;70.7
57374;BME280;43964;53.890;25.340;2023-04-02T02:36:37;1011.4;;;6.9;70.8
57374;BME280;43964;53.890;25.340;2023-04-02T02:41:32;1011.4;;;6.8;70.7
57374;BME280;43964;53.890;25.340;2023-04-02T02:46:15;1011.4;;;6.9;70.8
57374;BME280;43964;53.890;25.340;2023-04-02T02:51:43;1011.4;;;6.9;70.8
57374;BME280;43964;53.890;25.340;2023-04-02T02:56:33;1011.6;;;6.8;70.6
57374;BME280;43964;53.890;25.340;2023-04-02T03:01:23;1011.6;;;6.7;70.6
57374;BME280;43964;53.890;25.340;2023-04-02T03:06:39;1011.7;;;6.6;70.9
57374;BME280;43964;53.890;25.340;2023-04-02T03:11:34;1011.7;;;6.7;71
57374;BME280;43964;53.890;25.340;2023-04-02T03:16:43;1011.8;;;6.7;71
57374;BME280;43964;53.890;25.340;2023-04-02T03:21:14;1011.8;;;6.7;71
57374;BME280;43964;53.890;25.340;2023-04-02T03:26:26;1011.9;;;6.7;71.1
57374;BME280;43964;53.890;25.340;2023-04-02T03:31:43;1011.9;;;6.7;71
57374;BME280;43964;53.890;25.340;2023-04-02T03:36:18;1012;;;6.8;71
57374;BME280;43964;53.890;25.340;2023-04-02T03:41:40;1012.1;;;6.8;70.7
57374;BME280;43964;53.890;25.340;2023-04-02T03:46:04;1012.2;;;6.7;70.9
57374;BME280;43964;53.890;25.340;2023-04-02T03:51:26;1012.3;;;6.7;71
57374;BME280;43964;53.890;25.340;2023-04-02T03:56:41;1012.3;;;6.7;70.9
57374;BME280;43964;53.890;25.340;2023-04-02T04:01:25;1012.4;;;6.6;70.9
57374;BME280;43964;53.890;25.340;2023-04-02T04:06:40;1012.5;;;6.5;70.9
57374;BME280;43964;53.890;25.340;2023-04-02T04:11:02;1012.5;;;6.6;70.9
57374;BME280;43964;53.890;25.340;2023-04-02T04:16:08;1012.6;;;6.5;71
57374;BME280;43964;53.890;25.340;2023-04-02T04:21:43;1012.7;;;6.4;70.8
57374;BME280;43964;53.890;25.340;2023-04-02T04:26:12;1012.8;;;6.3;71
57374;BME280;43964;53.890;25.340;2023-04-02T04:31:42;1012.9;;;6.4;71
57374;BME280;43964;53.890;25.340;2023-04-02T04:36:01;1013;;;6.2;71
57374;BME280;43964;53.890;25.340;2023-04-02T04:41:26;1013.1;;;6.1;71.2
57374;BME280;43964;53.890;25.340;2023-04-02T04:46:37;1013.2;;;6.1;71.2
57374;BME280;43964;53.890;25.340;2023-04-02T04:51:07;1013.2;;;6.1;71.1
57374;BME280;43964;53.890;25.340;2023-04-02T04:56:44;1013.3;;;6.1;71
57374;BME280;43964;53.890;25.340;2023-04-02T05:01:02;1013.4;;;6.1;71.2
57374;BME280;43964;53.890;25.340;2023-04-02T05:06:32;1013.4;;;6.1;71.3
57374;BME280;43964;53.890;25.340;2023-04-02T05:11:40;1013.5;;;6.1;71.2
57374;BME280;43964;53.890;25.340;2023-04-02T05:16:30;1013.6;;;6.2;71.2
57374;BME280;43964;53.890;25.340;2023-04-02T05:21:40;1013.7;;;6.1;71
57374;BME280;43964;53.890;25.340;2023-04-02T05:26:13;1013.7;;;6;71
57374;BME280;43964;53.890;25.340;2023-04-02T05:31:23;1013.7;;;6;71.4
57374;BME280;43964;53.890;25.340;2023-04-02T05:36:44;1013.8;;;6.1;71.3
57374;BME280;43964;53.890;25.340;2023-04-02T05:41:02;1013.8;;;6.1;71.1
57374;BME280;43964;53.890;25.340;2023-04-02T05:46:41;1013.9;;;6.2;71.1
57374;BME280;43964;53.890;25.340;2023-04-02T05:51:01;1013.9;;;6.1;70.9
57374;BME280;43964;53.890;25.340;2023-04-02T05:56:26;1014;;;6.1;70.9
57374;BME280;43964;53.890;25.340;2023-04-02T06:01:41;1014.1;;;6;71
57374;BME280;43964;53.890;25.340;2023-04-02T06:06:20;1014.1;;;6;70.9
57374;BME280;43964;53.890;25.340;2023-04-02T06:11:42;1014.2;;;6;70.9
57374;BME280;43964;53.890;25.340;2023-04-02T06:16:11;1014.3;;;6.1;70.9
57374;BME280;43964;53.890;25.340;2023-04-02T06:21:25;1014.4;;;6.1;70.6
57374;BME280;43964;53.890;25.340;2023-04-02T06:26:40;1014.4;;;6;70.6
57374;BME280;43964;53.890;25.340;2023-04-02T06:31:02;1014.5;;;5.9;70.7
57374;BME280;43964;53.890;25.340;2023-04-02T06:36:37;1014.6;;;6;70.7
57374;BME280;43964;53.890;25.340;2023-04-02T06:41:10;1014.7;;;5.9;70.6
57374;BME280;43964;53.890;25.340;2023-04-02T06:46:25;1014.8;;;6;70.6
57374;BME280;43964;53.890;25.340;2023-04-02T06:51:39;1014.9;;;5.9;70.4
57374;BME280;43964;53.890;25.340;2023-04-02T06:56:02;1015;;;5.9;70.4
57374;BME280;43964;53.890;25.340;2023-04-02T07:01:41;1015.1;;;5.9;70.4
57374;BME280;43964;53.890;25.340;2023-04-02T07:06:01;1015.2;;;5.8;70.3
57374;BME280;43964;53.890;25.340;2023-04-02T07:11:23;1015.2;;;5.8;70.5
57374;BME280;43964;53.890;25.340;2023-04-02T07:16:01;1015.2;;;5.8;70.5
57374;BME280;43964;53.890;25.340;2023-04-02T07:21:09;1015.3;;;5.8;70.5
57374;BME280;43964;53.890;25.340;2023-04-02T07:26:41;1015.4;;;5.9;70.4
57374;BME280;43964;53.890;25.340;2023-04-02T07:31:22;1015.6;;;6;70.2
57374;BME280;43964;53.890;25.340;2023-04-02T07:36:23;1015.6;;;5.9;70
57374;BME280;43964;53.890;25.340;2023-04-02T07:41:09;1015.8;;;5.8;70
57374;BME280;43964;53.890;25.340;2023-04-02T07:46:09;1015.8;;;5.9;70
57374;BME280;43964;53.890;25.340;2023-04-02T07:51:40;1015.9;;;5.9;69.8
57374;BME280;43964;53.890;25.340;2023-04-02T07:56:12;1016;;;5.9;69.7
57374;BME280;43964;53.890;25.340;2023-04-02T08:01:24;1016;;;5.9;69.5
57374;BME280;43964;53.890;25.340;2023-04-02T08:06:01;1016.1;;;5.9;69.2
57374;BME280;43964;53.890;25.340;2023-04-02T08:11:13;1016.1;;;6.1;69.1
57374;BME280;43964;53.890;25.340;2023-04-02T08:16:45;1016.2;;;6.2;69
57374;BME280;43964;53.890;25.340;2023-04-02T08:21:07;1016.3;;;6.3;68.7
57374;BME280;43964;53.890;25.340;2023-04-02T08:26:21;1016.5;;;6.3;68.5
57374;BME280;43964;53.890;25.340;2023-04-02T08:31:01;1016.6;;;6.5;68.3
57374;BME280;43964;53.890;25.340;2023-04-02T08:36:14;1016.6;;;6.4;68
57374;BME280;43964;53.890;25.340;2023-04-02T08:41:43;1016.7;;;6.4;67.8
57374;BME280;43964;53.890;25.340;2023-04-02T08:46:10;1016.7;;;6.4;67.5
57374;BME280;43964;53.890;25.340;2023-04-02T08:51:18;1016.7;;;6.4;67.1
57374;BME280;43964;53.890;25.340;2023-04-02T08:56:26;1016.8;;;6.3;67.3
57374;BME280;43964;53.890;25.340;2023-04-02T09:01:19;1016.9;;;6.3;67.3
57374;BME280;43964;53.890;25.340;2023-04-02T09:06:25;1016.9;;;6.2;67.1
57374;BME280;43964;53.890;25.340;2023-04-02T09:11:11;1017;;;6.3;67.1
57374;BME280;43964;53.890;25.340;2023-04-02T09:16:29;1017.1;;;6.2;67
57374;BME280;43964;53.890;25.340;2023-04-02T09:21:17;1017.1;;;6.3;67
57374;BME280;43964;53.890;25.340;2023-04-02T09:26:01;1017.1;;;6.4;66.5
57374;BME280;43964;53.890;25.340;2023-04-02T09:31:42;1017.2;;;6.5;66.7
57374;BME280;43964;53.890;25.340;2023-04-02T09:36:31;1017.3;;;6.7;66.2
57374;BME280;43964;53.890;25.340;2023-04-02T09:41:24;1017.3;;;6.5;65.8
57374;BME280;43964;53.890;25.340;2023-04-02T09:46:02;1017.3;;;6.5;66
57374;BME280;43964;53.890;25.340;2023-04-02T09:51:03;1017.5;;;6.4;65.9
57374;BME280;43964;53.890;25.340;2023-04-02T09:56:39;1017.7;;;6.3;66
57374;BME280;43964;53.890;25.340;2023-04-02T10:01:01;1017.7;;;6.2;66
57374;BME280;43964;53.890;25.340;2023-04-02T10:06:23;1017.8;;;6.2;66
57374;BME280;43964;53.890;25.340;2023-04-02T10:11:02;1017.9;;;6.2;66.2
57374;BME280;43964;53.890;25.340;2023-04-02T10:16:02;1018;;;6.3;66.2
57374;BME280;43964;53.890;25.340;2023-04-02T10:21:39;1018.1;;;6.3;65.9
57374;BME280;43964;53.890;25.340;2023-04-02T10:26:06;1018.2;;;6.2;65.7
57374;BME280;43964;53.890;25.340;2023-04-02T10:31:18;1018.3;;;6.2;65.7
57374;BME280;43964;53.890;25.340;2023-04-02T10:36:10;1018.3;;;6.1;65.7
57374;BME280;43964;53.890;25.340;2023-04-02T10:41:25;1018.4;;;6.1;65.5
57374;BME280;43964;53.890;25.340;2023-04-02T10:46:42;1018.4;;;6.1;65.6
57374;BME280;43964;53.890;25.340;2023-04-02T10:51:11;1018.5;;;6.2;65.6
57374;BME280;43964;53.890;25.340;2023-04-02T10:56:25;1018.5;;;6.1;65.5
57374;BME280;43964;53.890;25.340;2023-04-02T11:01:02;1018.6;;;6.1;65.5
57374;BME280;43964;53.890;25.340;2023-04-02T11:06:17;1018.7;;;6.1;65.4
57374;BME280;43964;53.890;25.340;2023-04-02T11:11:43;1018.9;;;6.1;65.1
57374;BME280;43964;53.890;25.340;2023-04-02T11:16:27;1018.9;;;6.1;65.2
57374;BME280;43964;53.890;25.340;2023-04-02T11:21:41;1019;;;6.1;65
57374;BME280;43964;53.890;25.340;2023-04-02T11:26:27;1019.1;;;6;64.9
57374;BME280;43964;53.890;25.340;2023-04-02T11:31:01;1019.2;;;5.8;64.7
57374;BME280;43964;53.890;25.340;2023-04-02T11:36:59;1019.4;;;5.7;64.9
57374;BME280;43964;53.890;25.340;2023-04-02T11:41:59;1019.5;;;5.8;65
57374;BME280;43964;53.890;25.340;2023-04-02T11:46:31;1019.5;;;5.8;64.8
57374;BME280;43964;53.890;25.340;2023-04-02T11:51:46;1019.5;;;5.8;64.5
57374;BME280;43964;53.890;25.340;2023-04-02T11:56:32;1019.7;;;5.8;64.6
57374;BME280;43964;53.890;25.340;2023-04-02T12:01:49;1019.7;;;5.8;64.6
57374;BME280;43964;53.890;25.340;2023-04-02T12:06:18;1019.8;;;5.8;64.7
57374;BME280;43964;53.890;25.340;2023-04-02T12:11:29;1019.9;;;5.5;65.1
57374;BME280;43964;53.890;25.340;2023-04-02T12:16:11;1020;;;5.6;65.1
57374;BME280;43964;53.890;25.340;2023-04-02T12:21:01;1020.2;;;5.6;65
57374;BME280;43964;53.890;25.340;2023-04-02T12:26:42;1020.3;;;5.5;65.2
57374;BME280;43964;53.890;25.340;2023-04-02T12:31:31;1020.2;;;5.3;65.9
57374;BME280;43964;53.890;25.340;2023-04-02T12:36:25;1020.4;;;5;66.4
57374;BME280;43964;53.890;25.340;2023-04-02T12:41:03;1020.5;;;4.8;67.2
57374;BME280;43964;53.890;25.340;2023-04-02T12:46:07;1020.5;;;4.8;67.1
57374;BME280;43964;53.890;25.340;2023-04-02T12:51:39;1020.7;;;4.8;67
57374;BME280;43964;53.890;25.340;2023-04-02T12:56:17;1020.9;;;4.8;67
57374;BME280;43964;53.890;25.340;2023-04-02T13:01:25;1020.9;;;4.7;67.5
57374;BME280;43964;53.890;25.340;2023-04-02T13:06:17;1021;;;4.8;67.6
57374;BME280;43964;53.890;25.340;2023-04-02T13:11:02;1021;;;4.7;67.4
57374;BME280;43964;53.890;25.340;2023-04-02T13:16:41;1021;;;4.7;67.4
57374;BME280;43964;53.890;25.340;2023-04-02T13:21:01;1021.1;;;4.7;67.4
57374;BME280;43964;53.890;25.340;2023-04-02T13:26:26;1021.1;;;4.8;67.7
57374;BME280;43964;53.890;25.340;2023-04-02T13:31:41;1021.1;;;5;67.7
57374;BME280;43964;53.890;25.340;2023-04-02T13:36:17;1021.2;;;4.9;67.4
57374;BME280;43964;53.890;25.340;2023-04-02T13:41:40;1021.2;;;4.9;67.7
57374;BME280;43964;53.890;25.340;2023-04-02T13:46:19;1021.3;;;5;67.5
57374;BME280;43964;53.890;25.340;2023-04-02T13:51:26;1021.4;;;4.9;67.3
57374;BME280;43964;53.890;25.340;2023-04-02T13:56:25;1021.4;;;4.9;67.5
57374;BME280;43964;53.890;25.340;2023-04-02T14:01:07;1021.5;;;4.8;67.5
57374;BME280;43964;53.890;25.340;2023-04-02T14:06:47;1021.7;;;4.7;67.6
57374;BME280;43964;53.890;25.340;2023-04-02T14:21:04;1021.8;;;4.5;67.5
57374;BME280;43964;53.890;25.340;2023-04-02T14:26:03;1021.7;;;4.5;67.5
57374;BME280;43964;53.890;25.340;2023-04-02T14:31:42;1021.8;;;4.6;67.3
57374;BME280;43964;53.890;25.340;2023-04-02T14:41:27;1021.8;;;4.5;67.1
57374;BME280;43964;53.890;25.340;2023-04-02T14:46:02;1021.9;;;4.5;67.1
57374;BME280;43964;53.890;25.340;2023-04-02T14:51:20;1021.9;;;4.6;67.2
57374;BME280;43964;53.890;25.340;2023-04-02T14:56:43;1022;;;4.6;67.4
57374;BME280;43964;53.890;25.340;2023-04-02T15:01:18;1022.2;;;4.6;67.1
57374;BME280;43964;53.890;25.340;2023-04-02T15:06:26;1022.2;;;4.6;67
57374;BME280;43964;53.890;25.340;2023-04-02T15:11:01;1022.3;;;4.6;66.9
57374;BME280;43964;53.890;25.340;2023-04-02T15:16:18;1022.3;;;4.6;66.6
57374;BME280;43964;53.890;25.340;2023-04-02T15:21:48;1022.4;;;4.7;66.5
57374;BME280;43964;53.890;25.340;2023-04-02T15:26:40;1022.5;;;4.7;66.5
57374;BME280;43964;53.890;25.340;2023-04-02T15:31:15;1022.4;;;4.7;66.6
57374;BME280;43964;53.890;25.340;2023-04-02T15:36:05;1022.6;;;4.7;66.6
57374;BME280;43964;53.890;25.340;2023-04-02T15:41:34;1022.7;;;4.6;66.1
57374;BME280;43964;53.890;25.340;2023-04-02T15:46:04;1022.8;;;4.6;66
57374;BME280;43964;53.890;25.340;2023-04-02T15:51:48;1022.9;;;4.6;65.8
57374;BME280;43964;53.890;25.340;2023-04-02T15:56:36;1023;;;4.6;65.2
57374;BME280;43964;53.890;25.340;2023-04-02T16:01:03;1023;;;4.6;64.9
57374;BME280;43964;53.890;25.340;2023-04-02T16:06:34;1023.1;;;4.6;64.7
57374;BME280;43964;53.890;25.340;2023-04-02T16:11:10;1023.2;;;4.6;64.5
57374;BME280;43964;53.890;25.340;2023-04-02T16:16:39;1023.2;;;4.6;64.6
57374;BME280;43964;53.890;25.340;2023-04-02T16:21:32;1023.3;;;4.6;64.7
57374;BME280;43964;53.890;25.340;2023-04-02T16:26:08;1023.4;;;4.6;64.6
57374;BME280;43964;53.890;25.340;2023-04-02T16:31:30;1023.5;;;4.5;64.6
57374;BME280;43964;53.890;25.340;2023-04-02T16:36:02;1023.5;;;4.5;64.6
57374;BME280;43964;53.890;25.340;2023-04-02T16:41:43;1023.6;;;4.5;64.6
57374;BME280;43964;53.890;25.340;2023-04-02T16:46:33;1023.6;;;4.6;64.6
57374;BME280;43964;53.890;25.340;2023-04-02T16:51:01;1023.7;;;4.6;64.5
57374;BME280;43964;53.890;25.340;2023-04-02T16:56:31;1023.7;;;4.6;64.3
57374;BME280;43964;53.890;25.340;2023-04-02T17:01:24;1023.7;;;4.6;64.4
57374;BME280;43964;53.890;25.340;2023-04-02T17:06:46;1023.8;;;4.7;64.5
57374;BME280;43964;53.890;25.340;2023-04-02T17:51:25;1024.4;;;4.7;62.2
57374;BME280;43964;53.890;25.340;2023-04-02T17:56:43;1024.6;;;4.6;62.3
57374;BME280;43964;53.890;25.340;2023-04-02T18:01:40;1024.6;;;4.6;62.1
57374;BME280;43964;53.890;25.340;2023-04-02T18:06:01;1024.6;;;4.6;62.3
57374;BME280;43964;53.890;25.340;2023-04-02T18:11:39;1024.7;;;4.6;62.3
57374;BME280;43964;53.890;25.340;2023-04-02T18:16:15;1024.6;;;4.5;62.4
57374;BME280;43964;53.890;25.340;2023-04-02T18:21:46;1024.6;;;4.6;62.4
57374;BME280;43964;53.890;25.340;2023-04-02T18:26:37;1024.7;;;4.6;62.4
57374;BME280;43964;53.890;25.340;2023-04-02T18:31:03;1024.6;;;4.6;62.3
57374;BME280;43964;53.890;25.340;2023-04-02T18:36:35;1024.8;;;4.5;62.3
57374;BME280;43964;53.890;25.340;2023-04-02T18:41:03;1024.8;;;4.5;62.4
57374;BME280;43964;53.890;25.340;2023-04-02T18:46:42;1024.9;;;4.5;61.9
57374;BME280;43964;53.890;25.340;2023-04-02T18:51:20;1024.9;;;4.5;61.9
57374;BME280;43964;53.890;25.340;2023-04-02T18:56:12;1025;;;4.5;61.8
57374;BME280;43964;53.890;25.340;2023-04-02T19:01:26;1024.9;;;4.4;61.6
57374;BME280;43964;53.890;25.340;2023-04-02T19:06:02;1025;;;4.4;61.6
57374;BME280;43964;53.890;25.340;2023-04-02T19:11:41;1025;;;4.5;61.2
57374;BME280;43964;53.890;25.340;2023-04-02T19:16:38;1025;;;4.5;60.9
57374;BME280;43964;53.890;25.340;2023-04-02T19:21:03;1025;;;4.6;60.8
57374;BME280;43964;53.890;25.340;2023-04-02T19:26:34;1025.1;;;4.7;60.6
57374;BME280;43964;53.890;25.340;2023-04-02T19:31:05;1025.1;;;4.7;60.7
57374;BME280;43964;53.890;25.340;2023-04-02T19:36:43;1025.1;;;4.7;60.4
57374;BME280;43964;53.890;25.340;2023-04-02T19:41:02;1025.1;;;4.6;60.2
57374;BME280;43964;53.890;25.340;2023-04-02T19:46:01;1025.1;;;4.4;59.8
57374;BME280;43964;53.890;25.340;2023-04-02T19:51:15;1025.2;;;4.4;59.3
57374;BME280;43964;53.890;25.340;2023-04-02T19:56:25;1025.3;;;4.4;59.5
57374;BME280;43964;53.890;25.340;2023-04-02T20:01:41;1025.3;;;4.3;59.6
57374;BME280;43964;53.890;25.340;2023-04-02T20:06:01;1025.3;;;4.2;59.3
57374;BME280;43964;53.890;25.340;2023-04-02T20:11:01;1025.4;;;4.3;59.3
57374;BME280;43964;53.890;25.340;2023-04-02T20:16:31;1025.3;;;4.3;59.1
57374;BME280;43964;53.890;25.340;2023-04-02T20:21:25;1025.4;;;4.3;59.1
57374;BME280;43964;53.890;25.340;2023-04-02T20:26:27;1025.4;;;4.3;59.1
57374;BME280;43964;53.890;25.340;2023-04-02T20:31:12;1025.4;;;4.3;58.9
57374;BME280;43964;53.890;25.340;2023-04-02T20:36:03;1025.5;;;4.3;58.8
57374;BME280;43964;53.890;25.340;2023-04-02T20:41:33;1025.5;;;4.3;58.6
57374;BME280;43964;53.890;25.340;2023-04-02T20:46:15;1025.5;;;4.3;58.3
57374;BME280;43964;53.890;25.340;2023-04-02T20:51:41;1025.6;;;4.2;58.1
57374;BME280;43964;53.890;25.340;2023-04-02T20:56:25;1025.6;;;4.1;57.7
57374;BME280;43964;53.890;25.340;2023-04-02T21:01:09;1025.6;;;4.1;58
57374;BME280;43964;53.890;25.340;2023-04-02T21:06:41;1025.6;;;4.1;57.5
57374;BME280;43964;53.890;25.340;2023-04-02T21:11:27;1025.7;;;3.9;56.4
57374;BME280;43964;53.890;25.340;2023-04-02T21:16:43;1025.8;;;3.9;56.4
57374;BME280;43964;53.890;25.340;2023-04-02T21:21:12;1025.7;;;3.9;56
57374;BME280;43964;53.890;25.340;2023-04-02T21:26:02;1025.8;;;3.9;55.5
57374;BME280;43964;53.890;25.340;2023-04-02T21:31:36;1025.8;;;3.8;55.3
57374;BME280;43964;53.890;25.340;2023-04-02T21:36:28;1025.8;;;3.7;55.1
57374;BME280;43964;53.890;25.340;2023-04-02T21:41:42;1025.8;;;3.6;55.3
57374;BME280;43964;53.890;25.340;2023-04-02T21:46:11;1025.8;;;3.5;54.9
57374;BME280;43964;53.890;25.340;2023-04-02T21:51:08;1025.8;;;3.5;55.2
57374;BME280;43964;53.890;25.340;2023-04-02T21:56:34;1025.9;;;3.5;55.1
57374;BME280;43964;53.890;25.340;2023-04-02T22:01:01;1025.8;;;3.5;54.8
57374;BME280;43964;53.890;25.340;2023-04-02T22:06:42;1026;;;3.4;54.6
57374;BME280;43964;53.890;25.340;2023-04-02T22:11:34;1026;;;3.3;54.6
57374;BME280;43964;53.890;25.340;2023-04-02T22:16:12;1026;;;3.3;53.6
57374;BME280;43964;53.890;25.340;2023-04-02T22:21:37;1026;;;3.3;53.5
57374;BME280;43964;53.890;25.340;2023-04-02T22:26:28;1026.1;;;3.3;53.9
57374;BME280;43964;53.890;25.340;2023-04-02T22:31:44;1026.2;;;3.2;54.2
57374;BME280;43964;53.890;25.340;2023-04-02T22:36:28;1026.2;;;3;54.3
57374;BME280;43964;53.890;25.340;2023-04-02T22:46:35;1026.3;;;2.5;54.7
57374;BME280;43964;53.890;25.340;2023-04-02T22:51:16;1026.3;;;2.4;55
57374;BME280;43964;53.890;25.340;2023-04-02T22:56:43;1026.4;;;2.3;54.8
57374;BME280;43964;53.890;25.340;2023-04-02T23:01:32;1026.4;;;2.2;55
57374;BME280;43964;53.890;25.340;2023-04-02T23:06:02;1026.4;;;2.1;55
57374;BME280;43964;53.890;25.340;2023-04-02T23:11:33;1026.5;;;2;55.2
57374;BME280;43964;53.890;25.340;2023-04-02T23:16:02;1026.5;;;2;55.3
57374;BME280;43964;53.890;25.340;2023-04-02T23:21:41;1026.5;;;1.8;55.4
57374;BME280;43964;53.890;25.340;2023-04-02T23:26:26;1026.5;;;1.8;55.5
57374;BME280;43964;53.890;25.340;2023-04-02T23:31:02;1026.6;;;1.8;55.4
57374;BME280;43964;53.890;25.340;2023-04-02T23:36:34;1026.6;;;1.7;55.2
57374;BME280;43964;53.890;25.340;2023-04-02T23:41:12;1026.7;;;1.7;55.1
57374;BME280;43964;53.890;25.340;2023-04-02T23:46:45;1026.7;;;1.6;55.3
57374;BME280;43964;53.890;25.340;2023-04-02T23:51:26;1026.8;;;1.6;55.3
57374;BME280;43964;53.890;25.340;2023-04-02T23:56:01;1026.8;;;1.6;55.2
